This is the latest recevied weather packets stored in our database for station/object Reichnbch. If no packets are shown the sender has not sent any weather packets the latest 10 day(s).
| Time | Temp. | Humidity | Pressure | Rain* | Wind** | Luminosity | Snow |
|---|---|---|---|---|---|---|---|
| 1777793531 | 15° C | 73% | 1016.8 hPa | 0 mm | - | - | - |
| 1777791731 | 12.78° C | 78% | 1016.8 hPa | 0 mm | - | - | - |
| 1777789931 | 11.67° C | 82% | 1016.9 hPa | 0 mm | - | - | - |
| 1777788131 | 10.56° C | 84% | 1016.8 hPa | 0 mm | - | - | - |
| 1777786331 | 8.33° C | 84% | 1016.8 hPa | 0 mm | - | - | - |
| 1777784533 | 7.78° C | 84% | 1016.8 hPa | 0 mm | - | - | - |
| 1777782731 | 8.33° C | 84% | 1016.8 hPa | 0 mm | - | - | - |
| 1777780930 | 8.89° C | 82% | 1016.7 hPa | 0 mm | - | - | - |
| 1777779131 | 8.89° C | 81% | 1016.7 hPa | 0 mm | - | - | - |
| 1777777331 | 9.44° C | 80% | 1016.6 hPa | 0 mm | - | - | - |
| 1777775531 | 10° C | 79% | 1016.8 hPa | 0 mm | - | - | - |
| 1777773731 | 10° C | 77% | 1016.7 hPa | 0 mm | - | - | - |
| 1777771931 | 10.56° C | 74% | 1017 hPa | 0 mm | - | - | - |
| 1777770132 | 11.11° C | 72% | 1016.7 hPa | 0 mm | - | - | - |
| 1777768329 | 11.67° C | 71% | 1016.9 hPa | 0 mm | - | - | - |
| 1777766530 | 12.22° C | 69% | 1017.2 hPa | 0 mm | - | - | - |
| 1777764730 | 12.22° C | 67% | 1017.1 hPa | 0 mm | - | - | - |
| 1777762930 | 12.78° C | 65% | 1017.2 hPa | 0 mm | - | - | - |
| 1777761131 | 13.33° C | 63% | 1017.2 hPa | 0 mm | - | - | - |
| 1777759330 | 13.89° C | 60% | 1017.3 hPa | 0 mm | - | - | - |
| 1777757530 | 14.44° C | 58% | 1017.3 hPa | 0 mm | - | - | - |
| 1777755729 | 15.56° C | 55% | 1017.3 hPa | 0 mm | - | - | - |
| 1777753930 | 16.67° C | 52% | 1017.5 hPa | 0 mm | - | - | - |
| 1777752130 | 17.22° C | 53% | 1017.6 hPa | 0 mm | - | - | - |
| 1777750335 | 19.44° C | 49% | 1017.7 hPa | 0 mm | - | - | - |
* Rain since midnight (hover to see other rain measurements)
** Current wind speed in m/s (hover to see current wind gust speed)